sensor_id;sensor_type;location;lat;lon;timestamp;temperature;humidity
6018;DHT22;3037;51.068;13.780;2023-07-16T00:00:04;23.10;1.00
6018;DHT22;3037;51.068;13.780;2023-07-16T00:02:30;23.00;1.00
6018;DHT22;3037;51.068;13.780;2023-07-16T00:04:55;23.00;1.00
6018;DHT22;3037;51.068;13.780;2023-07-16T00:07:21;23.00;1.00
6018;DHT22;3037;51.068;13.780;2023-07-16T00:09:46;23.00;1.00
6018;DHT22;3037;51.068;13.780;2023-07-16T00:12:12;22.90;1.00
6018;DHT22;3037;51.068;13.780;2023-07-16T00:14:37;23.00;1.00
6018;DHT22;3037;51.068;13.780;2023-07-16T00:17:03;22.90;1.00
6018;DHT22;3037;51.068;13.780;2023-07-16T00:19:28;22.80;1.00
6018;DHT22;3037;51.068;13.780;2023-07-16T00:21:54;22.60;1.00
6018;DHT22;3037;51.068;13.780;2023-07-16T00:24:19;22.50;1.00
6018;DHT22;3037;51.068;13.780;2023-07-16T00:26:45;22.50;1.00
6018;DHT22;3037;51.068;13.780;2023-07-16T00:29:10;22.60;1.00
6018;DHT22;3037;51.068;13.780;2023-07-16T00:31:36;22.90;1.00
6018;DHT22;3037;51.068;13.780;2023-07-16T00:34:01;23.00;1.00
6018;DHT22;3037;51.068;13.780;2023-07-16T00:36:27;23.00;1.00
6018;DHT22;3037;51.068;13.780;2023-07-16T00:38:53;23.10;1.00
6018;DHT22;3037;51.068;13.780;2023-07-16T00:41:18;23.20;1.00
6018;DHT22;3037;51.068;13.780;2023-07-16T00:43:44;23.20;1.00
6018;DHT22;3037;51.068;13.780;2023-07-16T00:46:10;23.20;1.00
6018;DHT22;3037;51.068;13.780;2023-07-16T00:48:36;23.20;1.00
6018;DHT22;3037;51.068;13.780;2023-07-16T00:51:02;23.20;1.00
6018;DHT22;3037;51.068;13.780;2023-07-16T00:53:30;23.20;1.00
6018;DHT22;3037;51.068;13.780;2023-07-16T00:55:55;23.10;1.00
6018;DHT22;3037;51.068;13.780;2023-07-16T00:58:21;23.10;1.00
6018;DHT22;3037;51.068;13.780;2023-07-16T01:00:46;23.00;1.00
6018;DHT22;3037;51.068;13.780;2023-07-16T01:03:14;23.00;1.00
6018;DHT22;3037;51.068;13.780;2023-07-16T01:08:33;23.00;1.00
6018;DHT22;3037;51.068;13.780;2023-07-16T01:11:01;23.00;1.00
6018;DHT22;3037;51.068;13.780;2023-07-16T01:13:27;23.00;1.00
6018;DHT22;3037;51.068;13.780;2023-07-16T01:15:53;23.00;1.00
6018;DHT22;3037;51.068;13.780;2023-07-16T01:18:18;23.00;1.00
6018;DHT22;3037;51.068;13.780;2023-07-16T01:20:44;23.00;1.00
6018;DHT22;3037;51.068;13.780;2023-07-16T01:23:34;23.00;1.00
6018;DHT22;3037;51.068;13.780;2023-07-16T01:26:17;23.00;1.00
6018;DHT22;3037;51.068;13.780;2023-07-16T01:31:38;23.00;1.00
6018;DHT22;3037;51.068;13.780;2023-07-16T01:34:05;23.00;1.00
6018;DHT22;3037;51.068;13.780;2023-07-16T01:36:31;23.00;1.00
6018;DHT22;3037;51.068;13.780;2023-07-16T01:38:58;23.00;1.00
6018;DHT22;3037;51.068;13.780;2023-07-16T01:41:24;23.00;1.00
6018;DHT22;3037;51.068;13.780;2023-07-16T01:43:50;22.90;1.00
6018;DHT22;3037;51.068;13.780;2023-07-16T01:46:16;22.90;1.00
6018;DHT22;3037;51.068;13.780;2023-07-16T01:48:41;23.00;1.00
6018;DHT22;3037;51.068;13.780;2023-07-16T01:51:07;23.00;1.00
6018;DHT22;3037;51.068;13.780;2023-07-16T01:53:33;23.00;1.00
6018;DHT22;3037;51.068;13.780;2023-07-16T01:56:00;23.00;1.00
6018;DHT22;3037;51.068;13.780;2023-07-16T01:58:25;23.00;1.00
6018;DHT22;3037;51.068;13.780;2023-07-16T02:00:51;23.00;1.00
6018;DHT22;3037;51.068;13.780;2023-07-16T02:03:16;23.00;1.00
6018;DHT22;3037;51.068;13.780;2023-07-16T02:05:42;23.00;1.00
6018;DHT22;3037;51.068;13.780;2023-07-16T02:08:07;23.00;1.00
6018;DHT22;3037;51.068;13.780;2023-07-16T02:10:33;22.90;1.00
6018;DHT22;3037;51.068;13.780;2023-07-16T02:12:59;22.80;1.00
6018;DHT22;3037;51.068;13.780;2023-07-16T02:15:24;22.80;60.20
6018;DHT22;3037;51.068;13.780;2023-07-16T02:17:51;22.70;99.90
6018;DHT22;3037;51.068;13.780;2023-07-16T02:20:16;22.50;1.00
6018;DHT22;3037;51.068;13.780;2023-07-16T02:22:42;22.30;1.00
6018;DHT22;3037;51.068;13.780;2023-07-16T02:25:07;22.20;1.00
6018;DHT22;3037;51.068;13.780;2023-07-16T02:27:33;22.10;1.00
6018;DHT22;3037;51.068;13.780;2023-07-16T02:29:58;22.00;1.00
6018;DHT22;3037;51.068;13.780;2023-07-16T02:32:24;21.90;99.90
6018;DHT22;3037;51.068;13.780;2023-07-16T02:34:50;21.80;99.90
6018;DHT22;3037;51.068;13.780;2023-07-16T02:37:15;21.70;1.00
6018;DHT22;3037;51.068;13.780;2023-07-16T02:39:45;21.70;1.00
6018;DHT22;3037;51.068;13.780;2023-07-16T02:42:12;21.70;99.90
6018;DHT22;3037;51.068;13.780;2023-07-16T02:44:38;21.60;1.00
6018;DHT22;3037;51.068;13.780;2023-07-16T02:47:07;21.60;1.00
6018;DHT22;3037;51.068;13.780;2023-07-16T02:49:33;21.60;93.00
6018;DHT22;3037;51.068;13.780;2023-07-16T02:51:58;21.40;99.90
6018;DHT22;3037;51.068;13.780;2023-07-16T02:54:24;21.40;99.90
6018;DHT22;3037;51.068;13.780;2023-07-16T02:56:49;21.30;99.90
6018;DHT22;3037;51.068;13.780;2023-07-16T02:59:15;21.20;99.90
6018;DHT22;3037;51.068;13.780;2023-07-16T03:01:40;21.10;99.90
6018;DHT22;3037;51.068;13.780;2023-07-16T03:04:06;21.00;99.90
6018;DHT22;3037;51.068;13.780;2023-07-16T03:06:31;20.90;99.90
6018;DHT22;3037;51.068;13.780;2023-07-16T03:08:57;20.70;99.90
6018;DHT22;3037;51.068;13.780;2023-07-16T03:11:22;20.60;99.90
6018;DHT22;3037;51.068;13.780;2023-07-16T03:13:48;20.50;99.90
6018;DHT22;3037;51.068;13.780;2023-07-16T03:16:14;20.40;99.90
6018;DHT22;3037;51.068;13.780;2023-07-16T03:18:40;20.40;99.90
6018;DHT22;3037;51.068;13.780;2023-07-16T03:21:05;20.40;99.90
6018;DHT22;3037;51.068;13.780;2023-07-16T03:23:31;20.40;99.90
6018;DHT22;3037;51.068;13.780;2023-07-16T03:25:57;20.40;99.90
6018;DHT22;3037;51.068;13.780;2023-07-16T03:28:22;20.30;99.90
6018;DHT22;3037;51.068;13.780;2023-07-16T03:30:49;20.30;99.90
6018;DHT22;3037;51.068;13.780;2023-07-16T03:33:15;20.20;99.90
6018;DHT22;3037;51.068;13.780;2023-07-16T03:35:45;20.10;99.90
6018;DHT22;3037;51.068;13.780;2023-07-16T03:38:12;20.00;99.90
6018;DHT22;3037;51.068;13.780;2023-07-16T03:40:38;20.00;99.90
6018;DHT22;3037;51.068;13.780;2023-07-16T03:43:04;20.00;99.90
6018;DHT22;3037;51.068;13.780;2023-07-16T03:45:30;19.90;99.90
6018;DHT22;3037;51.068;13.780;2023-07-16T03:47:55;19.90;99.90
6018;DHT22;3037;51.068;13.780;2023-07-16T03:50:21;19.90;99.90
6018;DHT22;3037;51.068;13.780;2023-07-16T03:52:47;19.80;99.90
6018;DHT22;3037;51.068;13.780;2023-07-16T03:55:13;19.80;99.90
6018;DHT22;3037;51.068;13.780;2023-07-16T03:57:38;19.70;99.90
6018;DHT22;3037;51.068;13.780;2023-07-16T04:00:05;19.70;99.90
6018;DHT22;3037;51.068;13.780;2023-07-16T04:02:34;19.70;99.90
6018;DHT22;3037;51.068;13.780;2023-07-16T04:05:00;19.70;99.90
6018;DHT22;3037;51.068;13.780;2023-07-16T04:07:25;19.70;99.90
6018;DHT22;3037;51.068;13.780;2023-07-16T04:09:51;19.60;99.90
6018;DHT22;3037;51.068;13.780;2023-07-16T04:12:17;19.60;99.90
6018;DHT22;3037;51.068;13.780;2023-07-16T04:14:43;19.80;99.90
6018;DHT22;3037;51.068;13.780;2023-07-16T04:17:09;19.80;99.90
6018;DHT22;3037;51.068;13.780;2023-07-16T04:19:35;19.90;99.90
6018;DHT22;3037;51.068;13.780;2023-07-16T04:22:00;19.80;99.90
6018;DHT22;3037;51.068;13.780;2023-07-16T04:24:26;19.90;99.90
6018;DHT22;3037;51.068;13.780;2023-07-16T04:26:54;20.00;99.90
6018;DHT22;3037;51.068;13.780;2023-07-16T04:29:20;20.10;99.90
6018;DHT22;3037;51.068;13.780;2023-07-16T04:31:46;20.00;99.90
6018;DHT22;3037;51.068;13.780;2023-07-16T04:34:11;19.90;99.90
6018;DHT22;3037;51.068;13.780;2023-07-16T04:36:38;19.90;99.90
6018;DHT22;3037;51.068;13.780;2023-07-16T04:39:04;19.90;99.90
6018;DHT22;3037;51.068;13.780;2023-07-16T04:41:30;19.90;99.90
6018;DHT22;3037;51.068;13.780;2023-07-16T04:43:55;19.80;99.90
6018;DHT22;3037;51.068;13.780;2023-07-16T04:46:21;19.80;99.90
6018;DHT22;3037;51.068;13.780;2023-07-16T04:48:47;19.70;99.90
6018;DHT22;3037;51.068;13.780;2023-07-16T04:51:12;19.80;99.90
6018;DHT22;3037;51.068;13.780;2023-07-16T04:53:38;19.90;99.90
6018;DHT22;3037;51.068;13.780;2023-07-16T04:56:03;20.00;99.90
6018;DHT22;3037;51.068;13.780;2023-07-16T04:58:30;20.10;99.90
6018;DHT22;3037;51.068;13.780;2023-07-16T05:00:55;20.00;99.90
6018;DHT22;3037;51.068;13.780;2023-07-16T05:03:21;20.00;99.90
6018;DHT22;3037;51.068;13.780;2023-07-16T05:05:46;20.00;99.90
6018;DHT22;3037;51.068;13.780;2023-07-16T05:08:12;20.00;99.90
6018;DHT22;3037;51.068;13.780;2023-07-16T05:10:37;20.00;99.90
6018;DHT22;3037;51.068;13.780;2023-07-16T05:13:03;20.10;99.90
6018;DHT22;3037;51.068;13.780;2023-07-16T05:15:32;20.10;99.90
6018;DHT22;3037;51.068;13.780;2023-07-16T05:17:58;20.20;99.90
6018;DHT22;3037;51.068;13.780;2023-07-16T05:20:24;20.10;99.90
6018;DHT22;3037;51.068;13.780;2023-07-16T05:22:50;20.00;99.90
6018;DHT22;3037;51.068;13.780;2023-07-16T05:25:16;20.00;99.90
6018;DHT22;3037;51.068;13.780;2023-07-16T05:27:41;20.00;99.90
6018;DHT22;3037;51.068;13.780;2023-07-16T05:30:07;20.30;99.90
6018;DHT22;3037;51.068;13.780;2023-07-16T05:32:33;20.40;99.90
6018;DHT22;3037;51.068;13.780;2023-07-16T05:34:58;20.40;99.90
6018;DHT22;3037;51.068;13.780;2023-07-16T05:37:24;20.40;99.90
6018;DHT22;3037;51.068;13.780;2023-07-16T05:39:49;20.40;99.90
6018;DHT22;3037;51.068;13.780;2023-07-16T05:42:15;20.30;99.90
6018;DHT22;3037;51.068;13.780;2023-07-16T05:44:40;20.30;99.90
6018;DHT22;3037;51.068;13.780;2023-07-16T05:47:07;20.40;99.90
6018;DHT22;3037;51.068;13.780;2023-07-16T05:49:33;20.50;99.90
6018;DHT22;3037;51.068;13.780;2023-07-16T05:51:59;20.50;99.90
6018;DHT22;3037;51.068;13.780;2023-07-16T05:54:24;20.60;99.90
6018;DHT22;3037;51.068;13.780;2023-07-16T05:56:50;20.70;99.90
6018;DHT22;3037;51.068;13.780;2023-07-16T05:59:15;20.90;99.90
6018;DHT22;3037;51.068;13.780;2023-07-16T06:01:41;21.10;99.90
6018;DHT22;3037;51.068;13.780;2023-07-16T06:04:07;21.30;99.90
6018;DHT22;3037;51.068;13.780;2023-07-16T06:06:32;21.50;99.90
6018;DHT22;3037;51.068;13.780;2023-07-16T06:08:58;22.50;99.90
6018;DHT22;3037;51.068;13.780;2023-07-16T06:11:23;25.70;99.90
6018;DHT22;3037;51.068;13.780;2023-07-16T06:13:49;28.10;92.60
6018;DHT22;3037;51.068;13.780;2023-07-16T06:16:14;28.90;59.70
6018;DHT22;3037;51.068;13.780;2023-07-16T06:18:40;30.00;53.90
6018;DHT22;3037;51.068;13.780;2023-07-16T06:21:05;31.10;42.20
6018;DHT22;3037;51.068;13.780;2023-07-16T06:23:31;31.60;34.10
6018;DHT22;3037;51.068;13.780;2023-07-16T06:25:57;30.90;37.30
6018;DHT22;3037;51.068;13.780;2023-07-16T06:28:22;29.90;36.60
6018;DHT22;3037;51.068;13.780;2023-07-16T06:30:49;29.80;34.20
6018;DHT22;3037;51.068;13.780;2023-07-16T06:33:17;28.40;52.10
6018;DHT22;3037;51.068;13.780;2023-07-16T06:35:46;30.50;34.40
6018;DHT22;3037;51.068;13.780;2023-07-16T06:38:15;32.00;20.30
6018;DHT22;3037;51.068;13.780;2023-07-16T06:40:48;31.80;7.20
6018;DHT22;3037;51.068;13.780;2023-07-16T06:43:14;29.70;22.10
6018;DHT22;3037;51.068;13.780;2023-07-16T06:45:39;29.00;29.00
6018;DHT22;3037;51.068;13.780;2023-07-16T06:48:05;31.00;19.80
6018;DHT22;3037;51.068;13.780;2023-07-16T06:50:31;32.20;2.50
6018;DHT22;3037;51.068;13.780;2023-07-16T06:52:56;31.60;1.00
6018;DHT22;3037;51.068;13.780;2023-07-16T06:55:22;30.20;9.10
6018;DHT22;3037;51.068;13.780;2023-07-16T06:57:47;29.50;10.60
6018;DHT22;3037;51.068;13.780;2023-07-16T07:00:13;30.30;6.00
6018;DHT22;3037;51.068;13.780;2023-07-16T07:02:38;32.50;1.00
6018;DHT22;3037;51.068;13.780;2023-07-16T07:05:04;33.90;1.00
6018;DHT22;3037;51.068;13.780;2023-07-16T07:07:30;34.90;1.00
6018;DHT22;3037;51.068;13.780;2023-07-16T07:09:55;36.10;1.00
6018;DHT22;3037;51.068;13.780;2023-07-16T07:12:21;36.70;1.00
6018;DHT22;3037;51.068;13.780;2023-07-16T07:14:48;37.10;1.00
6018;DHT22;3037;51.068;13.780;2023-07-16T07:17:14;36.40;1.00
6018;DHT22;3037;51.068;13.780;2023-07-16T07:19:40;36.30;1.00
6018;DHT22;3037;51.068;13.780;2023-07-16T07:22:06;36.80;1.00
6018;DHT22;3037;51.068;13.780;2023-07-16T07:24:32;37.50;1.00
6018;DHT22;3037;51.068;13.780;2023-07-16T07:26:57;38.40;1.00
6018;DHT22;3037;51.068;13.780;2023-07-16T07:29:23;37.40;1.00
6018;DHT22;3037;51.068;13.780;2023-07-16T07:31:48;37.70;1.00
6018;DHT22;3037;51.068;13.780;2023-07-16T07:34:14;37.70;1.00
6018;DHT22;3037;51.068;13.780;2023-07-16T07:36:39;37.90;1.00
6018;DHT22;3037;51.068;13.780;2023-07-16T07:39:05;37.30;1.00
6018;DHT22;3037;51.068;13.780;2023-07-16T07:41:31;37.50;1.00
6018;DHT22;3037;51.068;13.780;2023-07-16T07:43:56;37.00;1.00
6018;DHT22;3037;51.068;13.780;2023-07-16T07:46:22;36.40;1.00
6018;DHT22;3037;51.068;13.780;2023-07-16T07:48:48;36.60;1.00
6018;DHT22;3037;51.068;13.780;2023-07-16T07:51:13;35.60;1.00
6018;DHT22;3037;51.068;13.780;2023-07-16T07:53:39;34.50;1.00
6018;DHT22;3037;51.068;13.780;2023-07-16T07:56:04;33.80;1.00
6018;DHT22;3037;51.068;13.780;2023-07-16T07:58:30;33.40;1.00
6018;DHT22;3037;51.068;13.780;2023-07-16T08:00:55;33.70;1.00
6018;DHT22;3037;51.068;13.780;2023-07-16T08:03:21;34.60;1.00
6018;DHT22;3037;51.068;13.780;2023-07-16T08:05:49;35.40;1.00
6018;DHT22;3037;51.068;13.780;2023-07-16T08:08:15;34.40;1.00
6018;DHT22;3037;51.068;13.780;2023-07-16T08:10:42;32.80;1.00
6018;DHT22;3037;51.068;13.780;2023-07-16T08:13:08;31.60;1.00
6018;DHT22;3037;51.068;13.780;2023-07-16T08:15:33;30.80;1.00
6018;DHT22;3037;51.068;13.780;2023-07-16T08:17:59;30.20;1.00
6018;DHT22;3037;51.068;13.780;2023-07-16T08:20:26;30.20;1.00
6018;DHT22;3037;51.068;13.780;2023-07-16T08:22:51;29.50;1.00
6018;DHT22;3037;51.068;13.780;2023-07-16T08:25:17;29.50;1.00
6018;DHT22;3037;51.068;13.780;2023-07-16T08:27:43;29.40;1.00
6018;DHT22;3037;51.068;13.780;2023-07-16T08:30:09;29.40;1.00
6018;DHT22;3037;51.068;13.780;2023-07-16T08:32:35;29.40;1.00
6018;DHT22;3037;51.068;13.780;2023-07-16T08:35:00;29.40;1.00
6018;DHT22;3037;51.068;13.780;2023-07-16T08:37:26;30.00;1.00
6018;DHT22;3037;51.068;13.780;2023-07-16T08:39:52;30.60;1.00
6018;DHT22;3037;51.068;13.780;2023-07-16T08:42:19;31.70;1.00
6018;DHT22;3037;51.068;13.780;2023-07-16T08:44:45;32.40;1.00
6018;DHT22;3037;51.068;13.780;2023-07-16T08:47:11;32.80;1.00
6018;DHT22;3037;51.068;13.780;2023-07-16T08:49:38;32.40;1.00
6018;DHT22;3037;51.068;13.780;2023-07-16T08:52:05;31.70;1.00
6018;DHT22;3037;51.068;13.780;2023-07-16T08:54:31;31.80;1.00
6018;DHT22;3037;51.068;13.780;2023-07-16T08:56:57;31.40;1.00
6018;DHT22;3037;51.068;13.780;2023-07-16T08:59:23;31.20;1.00
6018;DHT22;3037;51.068;13.780;2023-07-16T09:01:49;31.50;1.00
6018;DHT22;3037;51.068;13.780;2023-07-16T09:04:15;31.20;1.00
6018;DHT22;3037;51.068;13.780;2023-07-16T09:06:41;31.10;1.00
6018;DHT22;3037;51.068;13.780;2023-07-16T09:09:07;32.40;1.00
6018;DHT22;3037;51.068;13.780;2023-07-16T09:11:33;32.80;1.00
6018;DHT22;3037;51.068;13.780;2023-07-16T09:14:02;32.10;1.00
6018;DHT22;3037;51.068;13.780;2023-07-16T09:16:32;31.50;1.00
6018;DHT22;3037;51.068;13.780;2023-07-16T09:19:11;31.20;1.00
6018;DHT22;3037;51.068;13.780;2023-07-16T09:21:39;30.90;1.00
6018;DHT22;3037;51.068;13.780;2023-07-16T09:24:08;31.10;1.00
6018;DHT22;3037;51.068;13.780;2023-07-16T09:26:36;31.60;1.00
6018;DHT22;3037;51.068;13.780;2023-07-16T09:29:06;32.00;1.00
6018;DHT22;3037;51.068;13.780;2023-07-16T09:31:32;31.80;1.00
6018;DHT22;3037;51.068;13.780;2023-07-16T09:33:58;31.90;1.00
6018;DHT22;3037;51.068;13.780;2023-07-16T09:36:24;33.10;1.00
6018;DHT22;3037;51.068;13.780;2023-07-16T09:38:51;35.10;1.00
6018;DHT22;3037;51.068;13.780;2023-07-16T09:41:20;36.10;1.00
6018;DHT22;3037;51.068;13.780;2023-07-16T09:43:46;36.40;1.00
6018;DHT22;3037;51.068;13.780;2023-07-16T09:46:11;35.90;1.00
6018;DHT22;3037;51.068;13.780;2023-07-16T09:48:37;34.60;1.00
6018;DHT22;3037;51.068;13.780;2023-07-16T09:51:03;33.10;1.00
6018;DHT22;3037;51.068;13.780;2023-07-16T09:53:30;32.00;1.00
6018;DHT22;3037;51.068;13.780;2023-07-16T09:55:58;32.20;1.00
6018;DHT22;3037;51.068;13.780;2023-07-16T09:58:25;32.20;1.00
6018;DHT22;3037;51.068;13.780;2023-07-16T10:00:51;32.00;1.00
6018;DHT22;3037;51.068;13.780;2023-07-16T10:03:16;32.70;1.00
6018;DHT22;3037;51.068;13.780;2023-07-16T10:05:43;33.30;1.00
6018;DHT22;3037;51.068;13.780;2023-07-16T10:08:16;32.70;1.00
6018;DHT22;3037;51.068;13.780;2023-07-16T10:10:47;33.10;1.00
6018;DHT22;3037;51.068;13.780;2023-07-16T10:13:14;33.30;1.00
6018;DHT22;3037;51.068;13.780;2023-07-16T10:15:51;33.20;1.00
6018;DHT22;3037;51.068;13.780;2023-07-16T10:18:28;32.10;1.00
6018;DHT22;3037;51.068;13.780;2023-07-16T10:21:01;31.60;1.00
6018;DHT22;3037;51.068;13.780;2023-07-16T10:23:37;31.10;1.00
6018;DHT22;3037;51.068;13.780;2023-07-16T10:26:04;30.80;1.00
6018;DHT22;3037;51.068;13.780;2023-07-16T10:28:33;30.80;1.00
6018;DHT22;3037;51.068;13.780;2023-07-16T10:30:59;31.30;1.00
6018;DHT22;3037;51.068;13.780;2023-07-16T10:33:25;31.90;1.00
6018;DHT22;3037;51.068;13.780;2023-07-16T10:35:50;32.80;1.00
6018;DHT22;3037;51.068;13.780;2023-07-16T10:38:16;33.10;1.00
6018;DHT22;3037;51.068;13.780;2023-07-16T10:40:43;34.10;1.00
6018;DHT22;3037;51.068;13.780;2023-07-16T10:43:10;34.90;1.00
6018;DHT22;3037;51.068;13.780;2023-07-16T10:45:35;35.40;1.00
6018;DHT22;3037;51.068;13.780;2023-07-16T10:48:01;35.30;1.00
6018;DHT22;3037;51.068;13.780;2023-07-16T10:50:27;35.10;1.00
6018;DHT22;3037;51.068;13.780;2023-07-16T10:52:56;34.20;1.00
6018;DHT22;3037;51.068;13.780;2023-07-16T10:55:22;33.80;1.00
6018;DHT22;3037;51.068;13.780;2023-07-16T10:57:49;34.20;1.00
6018;DHT22;3037;51.068;13.780;2023-07-16T11:00:16;34.10;1.00
6018;DHT22;3037;51.068;13.780;2023-07-16T11:02:42;33.30;1.00
6018;DHT22;3037;51.068;13.780;2023-07-16T11:05:14;33.40;1.00
6018;DHT22;3037;51.068;13.780;2023-07-16T11:07:44;33.20;1.00
6018;DHT22;3037;51.068;13.780;2023-07-16T11:10:10;32.70;1.00
6018;DHT22;3037;51.068;13.780;2023-07-16T11:12:36;31.80;1.00
6018;DHT22;3037;51.068;13.780;2023-07-16T11:15:02;31.40;1.00
6018;DHT22;3037;51.068;13.780;2023-07-16T11:17:29;31.30;1.00
6018;DHT22;3037;51.068;13.780;2023-07-16T11:19:55;32.60;1.00
6018;DHT22;3037;51.068;13.780;2023-07-16T11:22:27;32.60;1.00
6018;DHT22;3037;51.068;13.780;2023-07-16T11:24:53;32.40;1.00
6018;DHT22;3037;51.068;13.780;2023-07-16T11:27:24;32.30;1.00
6018;DHT22;3037;51.068;13.780;2023-07-16T11:29:58;32.50;1.00
6018;DHT22;3037;51.068;13.780;2023-07-16T11:32:33;31.90;1.00
6018;DHT22;3037;51.068;13.780;2023-07-16T11:35:00;31.70;1.00
6018;DHT22;3037;51.068;13.780;2023-07-16T11:37:27;31.40;1.00
6018;DHT22;3037;51.068;13.780;2023-07-16T11:39:56;31.10;1.00
6018;DHT22;3037;51.068;13.780;2023-07-16T11:42:37;30.80;1.00
6018;DHT22;3037;51.068;13.780;2023-07-16T11:45:04;30.60;1.00
6018;DHT22;3037;51.068;13.780;2023-07-16T11:47:30;30.80;1.00
6018;DHT22;3037;51.068;13.780;2023-07-16T11:49:57;31.80;1.00
6018;DHT22;3037;51.068;13.780;2023-07-16T11:52:24;31.90;1.00
6018;DHT22;3037;51.068;13.780;2023-07-16T11:54:51;32.10;1.00
6018;DHT22;3037;51.068;13.780;2023-07-16T11:57:17;32.10;1.00
6018;DHT22;3037;51.068;13.780;2023-07-16T11:59:42;32.80;1.00
6018;DHT22;3037;51.068;13.780;2023-07-16T12:02:08;32.70;1.00
6018;DHT22;3037;51.068;13.780;2023-07-16T12:04:34;32.10;1.00
6018;DHT22;3037;51.068;13.780;2023-07-16T12:06:59;32.60;1.00
6018;DHT22;3037;51.068;13.780;2023-07-16T12:09:25;32.50;1.00
6018;DHT22;3037;51.068;13.780;2023-07-16T12:11:50;32.70;1.00
6018;DHT22;3037;51.068;13.780;2023-07-16T12:14:16;32.60;1.00
6018;DHT22;3037;51.068;13.780;2023-07-16T12:16:41;32.80;1.00
6018;DHT22;3037;51.068;13.780;2023-07-16T12:19:09;33.10;1.00
6018;DHT22;3037;51.068;13.780;2023-07-16T12:21:35;32.90;1.00
6018;DHT22;3037;51.068;13.780;2023-07-16T12:24:01;32.80;1.00
6018;DHT22;3037;51.068;13.780;2023-07-16T12:26:27;32.20;1.00
6018;DHT22;3037;51.068;13.780;2023-07-16T12:28:52;31.70;1.00
6018;DHT22;3037;51.068;13.780;2023-07-16T12:31:18;32.10;1.00
6018;DHT22;3037;51.068;13.780;2023-07-16T12:33:45;31.90;1.00
6018;DHT22;3037;51.068;13.780;2023-07-16T12:36:11;31.70;1.00
6018;DHT22;3037;51.068;13.780;2023-07-16T12:38:37;32.40;1.00
6018;DHT22;3037;51.068;13.780;2023-07-16T12:41:03;32.90;1.00
6018;DHT22;3037;51.068;13.780;2023-07-16T12:43:28;33.10;1.00
6018;DHT22;3037;51.068;13.780;2023-07-16T12:45:54;33.70;1.00
6018;DHT22;3037;51.068;13.780;2023-07-16T12:48:19;33.50;1.00
6018;DHT22;3037;51.068;13.780;2023-07-16T12:50:45;33.20;1.00
6018;DHT22;3037;51.068;13.780;2023-07-16T12:53:10;32.90;1.00
6018;DHT22;3037;51.068;13.780;2023-07-16T12:55:36;32.80;1.00
6018;DHT22;3037;51.068;13.780;2023-07-16T12:58:01;32.80;1.00
6018;DHT22;3037;51.068;13.780;2023-07-16T13:00:27;32.60;1.00
6018;DHT22;3037;51.068;13.780;2023-07-16T13:02:53;32.20;1.00
6018;DHT22;3037;51.068;13.780;2023-07-16T13:05:19;31.80;1.00
6018;DHT22;3037;51.068;13.780;2023-07-16T13:07:44;32.00;1.00
6018;DHT22;3037;51.068;13.780;2023-07-16T13:10:10;32.30;1.00
6018;DHT22;3037;51.068;13.780;2023-07-16T13:12:35;32.40;1.00
6018;DHT22;3037;51.068;13.780;2023-07-16T13:15:01;32.20;1.00
6018;DHT22;3037;51.068;13.780;2023-07-16T13:17:26;32.20;1.00
6018;DHT22;3037;51.068;13.780;2023-07-16T13:19:52;32.70;1.00
6018;DHT22;3037;51.068;13.780;2023-07-16T13:22:17;32.80;1.00
6018;DHT22;3037;51.068;13.780;2023-07-16T13:24:43;32.80;1.00
6018;DHT22;3037;51.068;13.780;2023-07-16T13:27:23;32.20;1.00
6018;DHT22;3037;51.068;13.780;2023-07-16T13:29:48;32.30;1.00
6018;DHT22;3037;51.068;13.780;2023-07-16T13:32:14;32.70;1.00
6018;DHT22;3037;51.068;13.780;2023-07-16T13:34:39;32.80;1.00
6018;DHT22;3037;51.068;13.780;2023-07-16T13:37:06;32.90;1.00
6018;DHT22;3037;51.068;13.780;2023-07-16T13:39:31;33.10;1.00
6018;DHT22;3037;51.068;13.780;2023-07-16T13:41:57;32.80;1.00
6018;DHT22;3037;51.068;13.780;2023-07-16T13:44:22;32.10;1.00
6018;DHT22;3037;51.068;13.780;2023-07-16T13:46:48;32.10;1.00
6018;DHT22;3037;51.068;13.780;2023-07-16T13:49:13;32.20;1.00
6018;DHT22;3037;51.068;13.780;2023-07-16T13:51:39;32.10;1.00
6018;DHT22;3037;51.068;13.780;2023-07-16T13:54:05;32.40;1.00
6018;DHT22;3037;51.068;13.780;2023-07-16T13:56:31;32.50;1.00
6018;DHT22;3037;51.068;13.780;2023-07-16T13:58:56;32.60;1.00
6018;DHT22;3037;51.068;13.780;2023-07-16T14:01:22;32.40;1.00
6018;DHT22;3037;51.068;13.780;2023-07-16T14:03:48;31.90;1.00
6018;DHT22;3037;51.068;13.780;2023-07-16T14:06:14;32.20;1.00
6018;DHT22;3037;51.068;13.780;2023-07-16T14:08:39;32.30;1.00
6018;DHT22;3037;51.068;13.780;2023-07-16T14:11:05;32.20;1.00
6018;DHT22;3037;51.068;13.780;2023-07-16T14:13:30;32.10;1.00
6018;DHT22;3037;51.068;13.780;2023-07-16T14:15:56;31.90;1.00
6018;DHT22;3037;51.068;13.780;2023-07-16T14:18:22;32.10;1.00
6018;DHT22;3037;51.068;13.780;2023-07-16T14:20:47;32.50;1.00
6018;DHT22;3037;51.068;13.780;2023-07-16T14:23:13;32.80;1.00
6018;DHT22;3037;51.068;13.780;2023-07-16T14:25:38;32.90;1.00
6018;DHT22;3037;51.068;13.780;2023-07-16T14:28:04;32.80;1.00
6018;DHT22;3037;51.068;13.780;2023-07-16T14:30:29;32.60;1.00
6018;DHT22;3037;51.068;13.780;2023-07-16T14:32:55;32.70;1.00
6018;DHT22;3037;51.068;13.780;2023-07-16T14:35:21;32.40;1.00
6018;DHT22;3037;51.068;13.780;2023-07-16T14:37:47;32.50;1.00
6018;DHT22;3037;51.068;13.780;2023-07-16T14:40:13;32.40;1.00
6018;DHT22;3037;51.068;13.780;2023-07-16T14:42:38;32.30;1.00
6018;DHT22;3037;51.068;13.780;2023-07-16T14:45:04;32.30;1.00
6018;DHT22;3037;51.068;13.780;2023-07-16T14:47:30;32.40;1.00
6018;DHT22;3037;51.068;13.780;2023-07-16T14:49:56;32.70;1.00
6018;DHT22;3037;51.068;13.780;2023-07-16T14:52:21;32.90;1.00
6018;DHT22;3037;51.068;13.780;2023-07-16T14:54:47;32.50;1.00
6018;DHT22;3037;51.068;13.780;2023-07-16T14:57:12;32.30;1.00
6018;DHT22;3037;51.068;13.780;2023-07-16T14:59:38;32.30;1.00
6018;DHT22;3037;51.068;13.780;2023-07-16T15:02:04;32.30;1.00
6018;DHT22;3037;51.068;13.780;2023-07-16T15:04:30;32.30;1.00
6018;DHT22;3037;51.068;13.780;2023-07-16T15:06:55;32.00;1.00
6018;DHT22;3037;51.068;13.780;2023-07-16T15:09:21;32.10;1.00
6018;DHT22;3037;51.068;13.780;2023-07-16T15:11:47;32.20;1.00
6018;DHT22;3037;51.068;13.780;2023-07-16T15:14:12;32.20;1.00
6018;DHT22;3037;51.068;13.780;2023-07-16T15:16:38;32.10;1.00
6018;DHT22;3037;51.068;13.780;2023-07-16T15:19:04;32.00;1.00
6018;DHT22;3037;51.068;13.780;2023-07-16T15:21:29;31.70;1.00
6018;DHT22;3037;51.068;13.780;2023-07-16T15:23:55;31.70;1.00
6018;DHT22;3037;51.068;13.780;2023-07-16T15:26:20;31.40;1.00
6018;DHT22;3037;51.068;13.780;2023-07-16T15:28:46;31.70;1.00
6018;DHT22;3037;51.068;13.780;2023-07-16T15:31:11;31.80;1.00
6018;DHT22;3037;51.068;13.780;2023-07-16T15:36:09;31.80;1.00
6018;DHT22;3037;51.068;13.780;2023-07-16T15:38:35;31.70;1.00
6018;DHT22;3037;51.068;13.780;2023-07-16T15:41:00;31.50;1.00
6018;DHT22;3037;51.068;13.780;2023-07-16T15:43:26;31.40;1.00
6018;DHT22;3037;51.068;13.780;2023-07-16T15:45:51;31.30;1.00
6018;DHT22;3037;51.068;13.780;2023-07-16T15:48:17;31.00;1.00
6018;DHT22;3037;51.068;13.780;2023-07-16T15:50:42;30.50;1.00
6018;DHT22;3037;51.068;13.780;2023-07-16T15:53:08;29.80;1.00
6018;DHT22;3037;51.068;13.780;2023-07-16T15:55:34;30.00;1.00
6018;DHT22;3037;51.068;13.780;2023-07-16T15:58:00;30.20;1.00